sensor_id;sensor_type;location;lat;lon;timestamp;P1;durP1;ratioP1;P2;durP2;ratioP2
39554;SDS011;25231;48.746;9.234;2022-07-29T00:00:40;102.88;;;97.35;;
39554;SDS011;25231;48.746;9.234;2022-07-29T00:03:09;90.88;;;85.88;;
39554;SDS011;25231;48.746;9.234;2022-07-29T00:05:35;108.10;;;102.38;;
39554;SDS011;25231;48.746;9.234;2022-07-29T00:08:00;89.00;;;84.07;;
39554;SDS011;25231;48.746;9.234;2022-07-29T00:10:25;88.88;;;84.10;;
39554;SDS011;25231;48.746;9.234;2022-07-29T00:12:50;101.05;;;95.68;;
39554;SDS011;25231;48.746;9.234;2022-07-29T00:15:16;92.68;;;87.47;;
39554;SDS011;25231;48.746;9.234;2022-07-29T00:17:41;80.45;;;75.97;;
39554;SDS011;25231;48.746;9.234;2022-07-29T00:20:07;81.55;;;77.05;;
39554;SDS011;25231;48.746;9.234;2022-07-29T00:22:32;81.40;;;76.95;;
39554;SDS011;25231;48.746;9.234;2022-07-29T00:24:58;80.95;;;76.50;;
39554;SDS011;25231;48.746;9.234;2022-07-29T00:27:23;80.88;;;76.40;;
39554;SDS011;25231;48.746;9.234;2022-07-29T00:29:48;83.85;;;79.22;;
39554;SDS011;25231;48.746;9.234;2022-07-29T00:32:14;88.90;;;84.00;;
39554;SDS011;25231;48.746;9.234;2022-07-29T00:34:39;88.93;;;83.90;;
39554;SDS011;25231;48.746;9.234;2022-07-29T00:37:24;82.10;;;77.50;;
39554;SDS011;25231;48.746;9.234;2022-07-29T00:39:49;75.93;;;71.63;;
39554;SDS011;25231;48.746;9.234;2022-07-29T00:42:14;65.32;;;61.63;;
39554;SDS011;25231;48.746;9.234;2022-07-29T00:44:41;86.80;;;82.05;;
39554;SDS011;25231;48.746;9.234;2022-07-29T00:47:07;94.72;;;89.40;;
39554;SDS011;25231;48.746;9.234;2022-07-29T00:49:34;106.97;;;100.93;;
39554;SDS011;25231;48.746;9.234;2022-07-29T00:52:03;103.00;;;97.18;;
39554;SDS011;25231;48.746;9.234;2022-07-29T00:54:29;102.80;;;97.18;;
39554;SDS011;25231;48.746;9.234;2022-07-29T00:56:56;101.55;;;96.05;;
39554;SDS011;25231;48.746;9.234;2022-07-29T00:59:23;92.22;;;87.13;;
39554;SDS011;25231;48.746;9.234;2022-07-29T01:01:49;89.93;;;85.03;;
39554;SDS011;25231;48.746;9.234;2022-07-29T01:04:14;97.30;;;91.35;;
39554;SDS011;25231;48.746;9.234;2022-07-29T01:06:39;88.97;;;83.88;;
39554;SDS011;25231;48.746;9.234;2022-07-29T01:09:06;89.28;;;84.45;;
39554;SDS011;25231;48.746;9.234;2022-07-29T01:11:32;85.82;;;81.10;;
39554;SDS011;25231;48.746;9.234;2022-07-29T01:13:59;92.88;;;87.80;;
39554;SDS011;25231;48.746;9.234;2022-07-29T01:16:29;80.35;;;75.95;;
39554;SDS011;25231;48.746;9.234;2022-07-29T01:19:00;86.25;;;81.40;;
39554;SDS011;25231;48.746;9.234;2022-07-29T01:29:52;101.60;;;96.03;;
39554;SDS011;25231;48.746;9.234;2022-07-29T01:32:21;103.10;;;97.45;;
39554;SDS011;25231;48.746;9.234;2022-07-29T01:40:36;82.90;;;78.28;;
39554;SDS011;25231;48.746;9.234;2022-07-29T01:43:16;73.93;;;69.88;;
39554;SDS011;25231;48.746;9.234;2022-07-29T01:45:48;79.82;;;75.60;;
39554;SDS011;25231;48.746;9.234;2022-07-29T01:48:19;76.13;;;71.93;;
39554;SDS011;25231;48.746;9.234;2022-07-29T01:50:49;75.00;;;70.90;;
39554;SDS011;25231;48.746;9.234;2022-07-29T01:54:02;76.00;;;71.95;;
39554;SDS011;25231;48.746;9.234;2022-07-29T01:56:11;79.95;;;75.72;;
39554;SDS011;25231;48.746;9.234;2022-07-29T01:58:38;90.55;;;85.70;;
39554;SDS011;25231;48.746;9.234;2022-07-29T02:01:06;90.80;;;85.90;;
39554;SDS011;25231;48.746;9.234;2022-07-29T02:03:34;124.10;;;117.55;;
39554;SDS011;25231;48.746;9.234;2022-07-29T02:06:02;132.73;;;125.63;;
39554;SDS011;25231;48.746;9.234;2022-07-29T02:08:29;163.50;;;154.88;;
39554;SDS011;25231;48.746;9.234;2022-07-29T02:10:57;164.07;;;155.63;;
39554;SDS011;25231;48.746;9.234;2022-07-29T02:13:24;186.23;;;176.40;;
39554;SDS011;25231;48.746;9.234;2022-07-29T02:15:52;176.67;;;167.47;;
39554;SDS011;25231;48.746;9.234;2022-07-29T02:18:20;191.88;;;181.82;;
39554;SDS011;25231;48.746;9.234;2022-07-29T02:20:49;172.60;;;163.43;;
39554;SDS011;25231;48.746;9.234;2022-07-29T02:23:19;143.93;;;136.23;;
39554;SDS011;25231;48.746;9.234;2022-07-29T02:25:49;125.97;;;119.03;;
39554;SDS011;25231;48.746;9.234;2022-07-29T02:28:18;132.88;;;125.78;;
39554;SDS011;25231;48.746;9.234;2022-07-29T02:30:45;136.93;;;129.68;;
39554;SDS011;25231;48.746;9.234;2022-07-29T02:33:12;130.20;;;123.38;;
39554;SDS011;25231;48.746;9.234;2022-07-29T02:35:39;131.52;;;124.63;;
39554;SDS011;25231;48.746;9.234;2022-07-29T02:38:06;153.50;;;145.23;;
39554;SDS011;25231;48.746;9.234;2022-07-29T02:40:53;138.63;;;131.32;;
39554;SDS011;25231;48.746;9.234;2022-07-29T02:43:20;151.60;;;143.52;;
39554;SDS011;25231;48.746;9.234;2022-07-29T02:45:47;159.77;;;151.32;;
39554;SDS011;25231;48.746;9.234;2022-07-29T02:48:16;142.80;;;135.25;;
39554;SDS011;25231;48.746;9.234;2022-07-29T02:50:51;125.15;;;118.47;;
39554;SDS011;25231;48.746;9.234;2022-07-29T02:53:25;103.73;;;98.13;;
39554;SDS011;25231;48.746;9.234;2022-07-29T02:56:01;101.15;;;95.72;;
39554;SDS011;25231;48.746;9.234;2022-07-29T02:58:38;94.20;;;89.13;;
39554;SDS011;25231;48.746;9.234;2022-07-29T03:01:12;90.00;;;85.20;;
39554;SDS011;25231;48.746;9.234;2022-07-29T03:03:40;82.53;;;77.80;;
39554;SDS011;25231;48.746;9.234;2022-07-29T03:06:09;84.50;;;79.97;;
39554;SDS011;25231;48.746;9.234;2022-07-29T03:08:37;91.72;;;86.70;;
39554;SDS011;25231;48.746;9.234;2022-07-29T03:11:02;87.97;;;83.07;;
39554;SDS011;25231;48.746;9.234;2022-07-29T03:13:29;87.80;;;83.00;;
39554;SDS011;25231;48.746;9.234;2022-07-29T03:15:55;82.63;;;78.00;;
39554;SDS011;25231;48.746;9.234;2022-07-29T03:18:22;75.60;;;71.33;;
39554;SDS011;25231;48.746;9.234;2022-07-29T03:20:48;86.83;;;81.97;;
39554;SDS011;25231;48.746;9.234;2022-07-29T03:23:23;89.78;;;84.93;;
39554;SDS011;25231;48.746;9.234;2022-07-29T03:25:50;90.93;;;85.97;;
39554;SDS011;25231;48.746;9.234;2022-07-29T03:28:16;91.67;;;86.77;;
39554;SDS011;25231;48.746;9.234;2022-07-29T03:30:42;85.27;;;80.07;;
39554;SDS011;25231;48.746;9.234;2022-07-29T03:33:07;95.07;;;90.07;;
39554;SDS011;25231;48.746;9.234;2022-07-29T03:35:32;95.88;;;90.63;;
39554;SDS011;25231;48.746;9.234;2022-07-29T03:37:58;108.17;;;102.27;;
39554;SDS011;25231;48.746;9.234;2022-07-29T03:41:10;77.73;;;73.33;;
39554;SDS011;25231;48.746;9.234;2022-07-29T03:43:18;64.23;;;60.63;;
39554;SDS011;25231;48.746;9.234;2022-07-29T03:45:45;56.23;;;53.13;;
39554;SDS011;25231;48.746;9.234;2022-07-29T03:48:15;41.07;;;38.73;;
39554;SDS011;25231;48.746;9.234;2022-07-29T03:50:44;46.30;;;43.60;;
39554;SDS011;25231;48.746;9.234;2022-07-29T03:53:10;43.10;;;40.70;;
39554;SDS011;25231;48.746;9.234;2022-07-29T03:55:37;38.70;;;36.43;;
39554;SDS011;25231;48.746;9.234;2022-07-29T03:58:06;68.20;;;64.40;;
39554;SDS011;25231;48.746;9.234;2022-07-29T04:00:33;95.80;;;90.70;;
39554;SDS011;25231;48.746;9.234;2022-07-29T04:03:00;87.20;;;82.50;;
39554;SDS011;25231;48.746;9.234;2022-07-29T04:05:26;133.40;;;126.23;;
39554;SDS011;25231;48.746;9.234;2022-07-29T04:07:51;113.40;;;107.40;;
39554;SDS011;25231;48.746;9.234;2022-07-29T04:10:17;105.13;;;99.53;;
39554;SDS011;25231;48.746;9.234;2022-07-29T04:12:43;98.67;;;93.43;;
39554;SDS011;25231;48.746;9.234;2022-07-29T04:15:10;98.50;;;93.33;;
39554;SDS011;25231;48.746;9.234;2022-07-29T04:17:35;109.22;;;103.47;;
39554;SDS011;25231;48.746;9.234;2022-07-29T04:20:01;103.20;;;97.57;;
39554;SDS011;25231;48.746;9.234;2022-07-29T04:22:27;75.75;;;71.50;;
39554;SDS011;25231;48.746;9.234;2022-07-29T04:24:52;81.30;;;76.90;;
39554;SDS011;25231;48.746;9.234;2022-07-29T04:27:18;98.65;;;93.35;;
39554;SDS011;25231;48.746;9.234;2022-07-29T04:29:43;166.48;;;157.63;;
39554;SDS011;25231;48.746;9.234;2022-07-29T04:32:08;186.23;;;176.43;;
39554;SDS011;25231;48.746;9.234;2022-07-29T04:34:34;143.83;;;135.93;;
39554;SDS011;25231;48.746;9.234;2022-07-29T04:36:59;141.07;;;133.50;;
39554;SDS011;25231;48.746;9.234;2022-07-29T04:39:25;85.90;;;81.22;;
39554;SDS011;25231;48.746;9.234;2022-07-29T04:41:50;66.30;;;62.60;;
39554;SDS011;25231;48.746;9.234;2022-07-29T04:44:16;77.40;;;73.15;;
39554;SDS011;25231;48.746;9.234;2022-07-29T04:46:41;133.98;;;126.55;;
39554;SDS011;25231;48.746;9.234;2022-07-29T04:49:07;177.70;;;168.00;;
39554;SDS011;25231;48.746;9.234;2022-07-29T04:51:32;187.25;;;177.13;;
39554;SDS011;25231;48.746;9.234;2022-07-29T04:53:58;185.93;;;175.80;;
39554;SDS011;25231;48.746;9.234;2022-07-29T04:56:23;173.32;;;164.18;;
39554;SDS011;25231;48.746;9.234;2022-07-29T04:58:49;172.23;;;162.93;;
39554;SDS011;25231;48.746;9.234;2022-07-29T05:01:14;209.02;;;197.38;;
39554;SDS011;25231;48.746;9.234;2022-07-29T05:03:40;140.73;;;133.23;;
39554;SDS011;25231;48.746;9.234;2022-07-29T05:06:05;120.70;;;114.28;;
39554;SDS011;25231;48.746;9.234;2022-07-29T05:08:30;96.47;;;91.28;;
39554;SDS011;25231;48.746;9.234;2022-07-29T05:10:56;138.10;;;130.85;;
39554;SDS011;25231;48.746;9.234;2022-07-29T05:13:21;282.85;;;267.73;;
39554;SDS011;25231;48.746;9.234;2022-07-29T05:15:46;286.38;;;270.95;;
39554;SDS011;25231;48.746;9.234;2022-07-29T05:18:12;189.35;;;179.25;;
39554;SDS011;25231;48.746;9.234;2022-07-29T05:20:37;250.68;;;236.63;;
39554;SDS011;25231;48.746;9.234;2022-07-29T05:23:03;254.93;;;240.52;;
39554;SDS011;25231;48.746;9.234;2022-07-29T05:25:28;305.63;;;288.60;;
39554;SDS011;25231;48.746;9.234;2022-07-29T05:27:54;312.73;;;295.27;;
39554;SDS011;25231;48.746;9.234;2022-07-29T05:30:20;331.80;;;312.98;;
39554;SDS011;25231;48.746;9.234;2022-07-29T05:32:46;286.08;;;270.73;;
39554;SDS011;25231;48.746;9.234;2022-07-29T05:35:12;152.77;;;144.38;;
39554;SDS011;25231;48.746;9.234;2022-07-29T05:37:38;231.20;;;218.68;;
39554;SDS011;25231;48.746;9.234;2022-07-29T05:40:04;247.15;;;234.18;;
39554;SDS011;25231;48.746;9.234;2022-07-29T05:42:30;188.38;;;178.52;;
39554;SDS011;25231;48.746;9.234;2022-07-29T05:44:55;200.82;;;190.27;;
39554;SDS011;25231;48.746;9.234;2022-07-29T05:47:21;210.32;;;199.02;;
39554;SDS011;25231;48.746;9.234;2022-07-29T05:49:47;209.38;;;198.48;;
39554;SDS011;25231;48.746;9.234;2022-07-29T05:52:12;201.98;;;191.55;;
39554;SDS011;25231;48.746;9.234;2022-07-29T05:54:38;205.43;;;194.85;;
39554;SDS011;25231;48.746;9.234;2022-07-29T05:57:03;202.90;;;192.27;;
39554;SDS011;25231;48.746;9.234;2022-07-29T05:59:30;283.15;;;268.67;;
39554;SDS011;25231;48.746;9.234;2022-07-29T06:01:56;252.63;;;239.20;;
39554;SDS011;25231;48.746;9.234;2022-07-29T06:04:22;279.45;;;264.83;;
39554;SDS011;25231;48.746;9.234;2022-07-29T06:06:47;209.32;;;198.32;;
39554;SDS011;25231;48.746;9.234;2022-07-29T06:09:13;192.77;;;182.73;;
39554;SDS011;25231;48.746;9.234;2022-07-29T06:11:38;107.57;;;101.95;;
39554;SDS011;25231;48.746;9.234;2022-07-29T06:14:04;79.25;;;75.15;;
39554;SDS011;25231;48.746;9.234;2022-07-29T06:16:29;71.68;;;67.88;;
39554;SDS011;25231;48.746;9.234;2022-07-29T06:18:55;72.85;;;68.95;;
39554;SDS011;25231;48.746;9.234;2022-07-29T06:21:20;67.50;;;64.00;;
39554;SDS011;25231;48.746;9.234;2022-07-29T06:23:45;116.07;;;109.93;;
39554;SDS011;25231;48.746;9.234;2022-07-29T06:26:11;112.40;;;106.68;;
39554;SDS011;25231;48.746;9.234;2022-07-29T06:28:37;110.18;;;104.43;;
39554;SDS011;25231;48.746;9.234;2022-07-29T06:31:02;87.15;;;82.20;;
39554;SDS011;25231;48.746;9.234;2022-07-29T06:33:27;68.60;;;65.05;;
39554;SDS011;25231;48.746;9.234;2022-07-29T06:35:53;61.42;;;58.20;;
39554;SDS011;25231;48.746;9.234;2022-07-29T06:38:19;48.22;;;45.63;;
39554;SDS011;25231;48.746;9.234;2022-07-29T06:40:45;34.60;;;32.83;;
39554;SDS011;25231;48.746;9.234;2022-07-29T06:43:34;29.63;;;28.10;;
39554;SDS011;25231;48.746;9.234;2022-07-29T06:46:03;35.13;;;33.30;;
39554;SDS011;25231;48.746;9.234;2022-07-29T06:48:30;86.75;;;82.38;;
39554;SDS011;25231;48.746;9.234;2022-07-29T06:50:56;133.02;;;126.38;;
39554;SDS011;25231;48.746;9.234;2022-07-29T06:53:21;191.90;;;182.40;;
39554;SDS011;25231;48.746;9.234;2022-07-29T06:55:47;200.18;;;190.07;;
39554;SDS011;25231;48.746;9.234;2022-07-29T06:58:13;180.75;;;171.50;;
39554;SDS011;25231;48.746;9.234;2022-07-29T07:00:40;65.60;;;62.25;;
39554;SDS011;25231;48.746;9.234;2022-07-29T07:03:06;59.70;;;56.63;;
39554;SDS011;25231;48.746;9.234;2022-07-29T07:05:32;73.68;;;69.93;;
39554;SDS011;25231;48.746;9.234;2022-07-29T07:07:57;69.57;;;66.00;;
39554;SDS011;25231;48.746;9.234;2022-07-29T07:10:22;63.35;;;59.80;;
39554;SDS011;25231;48.746;9.234;2022-07-29T07:12:48;65.88;;;62.13;;
39554;SDS011;25231;48.746;9.234;2022-07-29T07:15:13;74.75;;;70.90;;
39554;SDS011;25231;48.746;9.234;2022-07-29T07:17:38;107.85;;;102.43;;
39554;SDS011;25231;48.746;9.234;2022-07-29T07:20:05;76.72;;;72.55;;
39554;SDS011;25231;48.746;9.234;2022-07-29T07:22:31;49.10;;;46.22;;
39554;SDS011;25231;48.746;9.234;2022-07-29T07:24:56;46.08;;;43.75;;
39554;SDS011;25231;48.746;9.234;2022-07-29T07:27:22;60.85;;;57.40;;
39554;SDS011;25231;48.746;9.234;2022-07-29T07:29:47;60.78;;;57.15;;
39554;SDS011;25231;48.746;9.234;2022-07-29T07:32:12;59.72;;;56.47;;
39554;SDS011;25231;48.746;9.234;2022-07-29T07:34:39;52.90;;;49.90;;
39554;SDS011;25231;48.746;9.234;2022-07-29T07:37:04;47.80;;;45.17;;
39554;SDS011;25231;48.746;9.234;2022-07-29T07:39:30;56.28;;;53.10;;
39554;SDS011;25231;48.746;9.234;2022-07-29T07:41:55;72.28;;;68.28;;
39554;SDS011;25231;48.746;9.234;2022-07-29T07:44:21;101.90;;;96.50;;
39554;SDS011;25231;48.746;9.234;2022-07-29T07:46:46;137.45;;;130.20;;
39554;SDS011;25231;48.746;9.234;2022-07-29T07:49:11;97.03;;;92.05;;
39554;SDS011;25231;48.746;9.234;2022-07-29T07:51:37;56.00;;;52.72;;
39554;SDS011;25231;48.746;9.234;2022-07-29T07:54:03;79.68;;;75.35;;
39554;SDS011;25231;48.746;9.234;2022-07-29T07:56:28;156.32;;;148.20;;
39554;SDS011;25231;48.746;9.234;2022-07-29T07:58:54;118.30;;;112.38;;
39554;SDS011;25231;48.746;9.234;2022-07-29T08:01:19;58.80;;;55.67;;
39554;SDS011;25231;48.746;9.234;2022-07-29T08:03:47;60.60;;;57.20;;
39554;SDS011;25231;48.746;9.234;2022-07-29T08:06:13;56.67;;;53.53;;
39554;SDS011;25231;48.746;9.234;2022-07-29T08:08:39;79.32;;;75.03;;
39554;SDS011;25231;48.746;9.234;2022-07-29T08:11:04;98.45;;;93.22;;
39554;SDS011;25231;48.746;9.234;2022-07-29T08:13:31;121.07;;;114.82;;
39554;SDS011;25231;48.746;9.234;2022-07-29T08:15:56;134.45;;;127.47;;
39554;SDS011;25231;48.746;9.234;2022-07-29T08:18:24;128.15;;;121.63;;
39554;SDS011;25231;48.746;9.234;2022-07-29T08:20:50;103.10;;;97.72;;
39554;SDS011;25231;48.746;9.234;2022-07-29T08:23:15;86.82;;;82.13;;
39554;SDS011;25231;48.746;9.234;2022-07-29T08:25:41;111.25;;;105.38;;
39554;SDS011;25231;48.746;9.234;2022-07-29T08:28:06;92.22;;;87.38;;
39554;SDS011;25231;48.746;9.234;2022-07-29T08:30:32;71.78;;;67.60;;
39554;SDS011;25231;48.746;9.234;2022-07-29T08:32:58;190.57;;;180.77;;
39554;SDS011;25231;48.746;9.234;2022-07-29T08:35:24;214.63;;;203.63;;
39554;SDS011;25231;48.746;9.234;2022-07-29T08:37:50;123.30;;;117.03;;
39554;SDS011;25231;48.746;9.234;2022-07-29T08:40:16;138.68;;;131.43;;
39554;SDS011;25231;48.746;9.234;2022-07-29T08:42:41;140.75;;;133.45;;
39554;SDS011;25231;48.746;9.234;2022-07-29T08:45:07;313.20;;;296.63;;
39554;SDS011;25231;48.746;9.234;2022-07-29T08:47:33;357.88;;;338.45;;
39554;SDS011;25231;48.746;9.234;2022-07-29T08:50:01;177.25;;;168.00;;
39554;SDS011;25231;48.746;9.234;2022-07-29T08:52:28;84.40;;;79.93;;
39554;SDS011;25231;48.746;9.234;2022-07-29T08:54:57;137.75;;;130.95;;
39554;SDS011;25231;48.746;9.234;2022-07-29T08:57:23;108.55;;;102.80;;
39554;SDS011;25231;48.746;9.234;2022-07-29T08:59:49;155.38;;;147.05;;
39554;SDS011;25231;48.746;9.234;2022-07-29T09:02:20;154.60;;;146.65;;
39554;SDS011;25231;48.746;9.234;2022-07-29T09:04:48;123.15;;;116.63;;
39554;SDS011;25231;48.746;9.234;2022-07-29T09:07:14;178.05;;;168.55;;
39554;SDS011;25231;48.746;9.234;2022-07-29T09:09:41;74.50;;;70.60;;
39554;SDS011;25231;48.746;9.234;2022-07-29T09:12:08;124.38;;;117.97;;
39554;SDS011;25231;48.746;9.234;2022-07-29T09:14:39;67.95;;;64.10;;
39554;SDS011;25231;48.746;9.234;2022-07-29T09:17:06;54.47;;;51.42;;
39554;SDS011;25231;48.746;9.234;2022-07-29T09:19:35;93.78;;;88.93;;
39554;SDS011;25231;48.746;9.234;2022-07-29T09:22:03;104.60;;;99.00;;
39554;SDS011;25231;48.746;9.234;2022-07-29T09:26:59;68.72;;;64.72;;
39554;SDS011;25231;48.746;9.234;2022-07-29T09:29:24;61.80;;;58.30;;
39554;SDS011;25231;48.746;9.234;2022-07-29T09:31:52;117.18;;;110.53;;
39554;SDS011;25231;48.746;9.234;2022-07-29T09:34:25;142.43;;;134.93;;
39554;SDS011;25231;48.746;9.234;2022-07-29T09:36:53;178.07;;;168.75;;
39554;SDS011;25231;48.746;9.234;2022-07-29T09:39:27;163.80;;;154.98;;
39554;SDS011;25231;48.746;9.234;2022-07-29T09:41:55;145.43;;;137.65;;
39554;SDS011;25231;48.746;9.234;2022-07-29T09:44:22;144.55;;;136.52;;
39554;SDS011;25231;48.746;9.234;2022-07-29T09:46:59;131.95;;;124.78;;
39554;SDS011;25231;48.746;9.234;2022-07-29T09:49:33;122.35;;;116.07;;
39554;SDS011;25231;48.746;9.234;2022-07-29T09:52:07;117.68;;;111.32;;
39554;SDS011;25231;48.746;9.234;2022-07-29T09:54:35;75.00;;;70.95;;
39554;SDS011;25231;48.746;9.234;2022-07-29T09:57:02;149.38;;;141.48;;
39554;SDS011;25231;48.746;9.234;2022-07-29T09:59:32;270.88;;;256.25;;
39554;SDS011;25231;48.746;9.234;2022-07-29T10:01:58;267.55;;;252.60;;
39554;SDS011;25231;48.746;9.234;2022-07-29T10:04:24;277.00;;;262.08;;
39554;SDS011;25231;48.746;9.234;2022-07-29T10:07:03;229.88;;;217.38;;
39554;SDS011;25231;48.746;9.234;2022-07-29T10:09:30;305.27;;;288.75;;
39554;SDS011;25231;48.746;9.234;2022-07-29T10:12:29;307.20;;;290.55;;
39554;SDS011;25231;48.746;9.234;2022-07-29T10:14:48;273.08;;;258.67;;
39554;SDS011;25231;48.746;9.234;2022-07-29T10:17:14;315.75;;;299.00;;
39554;SDS011;25231;48.746;9.234;2022-07-29T10:19:41;328.17;;;310.60;;
39554;SDS011;25231;48.746;9.234;2022-07-29T10:22:08;270.98;;;256.65;;
39554;SDS011;25231;48.746;9.234;2022-07-29T10:24:35;170.38;;;161.45;;
39554;SDS011;25231;48.746;9.234;2022-07-29T10:27:03;137.10;;;129.43;;
39554;SDS011;25231;48.746;9.234;2022-07-29T10:29:30;214.73;;;203.55;;
39554;SDS011;25231;48.746;9.234;2022-07-29T10:32:07;151.90;;;143.88;;
39554;SDS011;25231;48.746;9.234;2022-07-29T10:40:02;125.00;;;118.35;;
39554;SDS011;25231;48.746;9.234;2022-07-29T10:42:53;121.75;;;115.05;;
39554;SDS011;25231;48.746;9.234;2022-07-29T10:45:20;137.82;;;130.60;;
39554;SDS011;25231;48.746;9.234;2022-07-29T10:47:46;389.92;;;368.80;;
39554;SDS011;25231;48.746;9.234;2022-07-29T10:50:11;288.20;;;272.65;;
39554;SDS011;25231;48.746;9.234;2022-07-29T10:58:18;397.63;;;374.20;;
39554;SDS011;25231;48.746;9.234;2022-07-29T11:00:54;154.00;;;145.45;;
39554;SDS011;25231;48.746;9.234;2022-07-29T11:06:16;95.80;;;90.53;;
39554;SDS011;25231;48.746;9.234;2022-07-29T11:08:42;543.67;;;512.22;;
39554;SDS011;25231;48.746;9.234;2022-07-29T11:16:17;349.63;;;325.80;;
39554;SDS011;25231;48.746;9.234;2022-07-29T11:21:38;399.92;;;374.15;;
39554;SDS011;25231;48.746;9.234;2022-07-29T11:24:12;1805.30;;;999.90;;
39554;SDS011;25231;48.746;9.234;2022-07-29T11:29:56;393.27;;;369.27;;
39554;SDS011;25231;48.746;9.234;2022-07-29T11:32:28;63.50;;;59.80;;
39554;SDS011;25231;48.746;9.234;2022-07-29T11:35:15;46.40;;;43.70;;
39554;SDS011;25231;48.746;9.234;2022-07-29T11:37:46;40.67;;;38.00;;
39554;SDS011;25231;48.746;9.234;2022-07-29T11:40:32;39.67;;;37.27;;
39554;SDS011;25231;48.746;9.234;2022-07-29T11:42:57;51.30;;;48.30;;
39554;SDS011;25231;48.746;9.234;2022-07-29T11:45:24;55.30;;;52.10;;
39554;SDS011;25231;48.746;9.234;2022-07-29T11:47:53;49.47;;;46.67;;
39554;SDS011;25231;48.746;9.234;2022-07-29T11:50:27;69.43;;;65.67;;
39554;SDS011;25231;48.746;9.234;2022-07-29T11:53:03;52.73;;;49.53;;
39554;SDS011;25231;48.746;9.234;2022-07-29T11:55:40;41.07;;;38.77;;
39554;SDS011;25231;48.746;9.234;2022-07-29T11:58:06;19.90;;;18.70;;
39554;SDS011;25231;48.746;9.234;2022-07-29T12:00:33;28.73;;;27.17;;
39554;SDS011;25231;48.746;9.234;2022-07-29T12:03:04;36.33;;;34.30;;
39554;SDS011;25231;48.746;9.234;2022-07-29T12:05:35;33.50;;;31.67;;
39554;SDS011;25231;48.746;9.234;2022-07-29T12:10:34;64.30;;;60.88;;
39554;SDS011;25231;48.746;9.234;2022-07-29T12:13:00;71.05;;;66.90;;
39554;SDS011;25231;48.746;9.234;2022-07-29T12:15:25;43.53;;;41.22;;
39554;SDS011;25231;48.746;9.234;2022-07-29T12:17:51;43.70;;;41.33;;
39554;SDS011;25231;48.746;9.234;2022-07-29T12:20:27;65.07;;;61.50;;
39554;SDS011;25231;48.746;9.234;2022-07-29T12:22:54;108.15;;;102.40;;
39554;SDS011;25231;48.746;9.234;2022-07-29T12:25:21;93.50;;;88.25;;
39554;SDS011;25231;48.746;9.234;2022-07-29T12:28:02;123.03;;;116.15;;
39554;SDS011;25231;48.746;9.234;2022-07-29T12:30:41;129.35;;;122.38;;
39554;SDS011;25231;48.746;9.234;2022-07-29T12:35:56;150.20;;;142.18;;
39554;SDS011;25231;48.746;9.234;2022-07-29T12:38:24;79.30;;;74.90;;
39554;SDS011;25231;48.746;9.234;2022-07-29T12:40:51;82.93;;;78.47;;
39554;SDS011;25231;48.746;9.234;2022-07-29T12:43:19;327.95;;;309.80;;
39554;SDS011;25231;48.746;9.234;2022-07-29T12:45:47;169.50;;;160.35;;
39554;SDS011;25231;48.746;9.234;2022-07-29T12:48:15;182.90;;;173.20;;
39554;SDS011;25231;48.746;9.234;2022-07-29T12:50:55;180.05;;;170.32;;
39554;SDS011;25231;48.746;9.234;2022-07-29T12:53:22;212.45;;;201.13;;
39554;SDS011;25231;48.746;9.234;2022-07-29T12:55:48;199.48;;;188.57;;
39554;SDS011;25231;48.746;9.234;2022-07-29T12:58:38;126.15;;;119.43;;
39554;SDS011;25231;48.746;9.234;2022-07-29T13:01:10;69.32;;;65.57;;
39554;SDS011;25231;48.746;9.234;2022-07-29T13:03:44;131.70;;;124.32;;
39554;SDS011;25231;48.746;9.234;2022-07-29T13:06:37;125.65;;;119.00;;
39554;SDS011;25231;48.746;9.234;2022-07-29T13:09:16;146.95;;;139.15;;
39554;SDS011;25231;48.746;9.234;2022-07-29T13:11:45;229.45;;;217.45;;
39554;SDS011;25231;48.746;9.234;2022-07-29T13:14:12;326.27;;;308.38;;
39554;SDS011;25231;48.746;9.234;2022-07-29T13:19:35;259.55;;;245.35;;
39554;SDS011;25231;48.746;9.234;2022-07-29T13:22:01;302.63;;;285.83;;
39554;SDS011;25231;48.746;9.234;2022-07-29T13:24:27;175.80;;;166.50;;
39554;SDS011;25231;48.746;9.234;2022-07-29T13:26:52;82.00;;;77.40;;
39554;SDS011;25231;48.746;9.234;2022-07-29T13:29:18;98.25;;;92.88;;
39554;SDS011;25231;48.746;9.234;2022-07-29T13:31:43;65.78;;;62.05;;
39554;SDS011;25231;48.746;9.234;2022-07-29T13:34:09;127.97;;;120.68;;
39554;SDS011;25231;48.746;9.234;2022-07-29T13:36:34;142.27;;;134.48;;
39554;SDS011;25231;48.746;9.234;2022-07-29T13:38:59;100.45;;;94.97;;
39554;SDS011;25231;48.746;9.234;2022-07-29T13:41:27;117.53;;;111.13;;
39554;SDS011;25231;48.746;9.234;2022-07-29T13:43:52;65.70;;;61.88;;
39554;SDS011;25231;48.746;9.234;2022-07-29T13:46:18;68.15;;;64.25;;
39554;SDS011;25231;48.746;9.234;2022-07-29T13:48:43;54.25;;;51.13;;
39554;SDS011;25231;48.746;9.234;2022-07-29T13:51:08;50.92;;;47.60;;
39554;SDS011;25231;48.746;9.234;2022-07-29T13:53:34;49.40;;;46.47;;
39554;SDS011;25231;48.746;9.234;2022-07-29T13:55:59;53.15;;;50.03;;
39554;SDS011;25231;48.746;9.234;2022-07-29T13:58:24;66.22;;;62.45;;
39554;SDS011;25231;48.746;9.234;2022-07-29T14:00:50;51.67;;;48.67;;
39554;SDS011;25231;48.746;9.234;2022-07-29T14:03:15;49.47;;;46.58;;
39554;SDS011;25231;48.746;9.234;2022-07-29T14:05:41;59.47;;;55.97;;
39554;SDS011;25231;48.746;9.234;2022-07-29T14:08:06;80.47;;;75.82;;
39554;SDS011;25231;48.746;9.234;2022-07-29T14:10:31;177.75;;;167.40;;
39554;SDS011;25231;48.746;9.234;2022-07-29T14:12:57;234.82;;;221.85;;
39554;SDS011;25231;48.746;9.234;2022-07-29T14:15:22;144.65;;;136.77;;
39554;SDS011;25231;48.746;9.234;2022-07-29T14:17:48;270.50;;;254.82;;
39554;SDS011;25231;48.746;9.234;2022-07-29T14:20:13;459.83;;;433.38;;
39554;SDS011;25231;48.746;9.234;2022-07-29T14:22:40;458.27;;;432.10;;
39554;SDS011;25231;48.746;9.234;2022-07-29T14:25:06;303.02;;;286.02;;
39554;SDS011;25231;48.746;9.234;2022-07-29T14:27:32;226.77;;;214.48;;
39554;SDS011;25231;48.746;9.234;2022-07-29T14:29:57;331.17;;;312.67;;
39554;SDS011;25231;48.746;9.234;2022-07-29T14:32:23;241.93;;;229.13;;
39554;SDS011;25231;48.746;9.234;2022-07-29T14:34:48;323.58;;;305.60;;
39554;SDS011;25231;48.746;9.234;2022-07-29T14:37:13;375.15;;;354.35;;
39554;SDS011;25231;48.746;9.234;2022-07-29T14:39:38;343.58;;;324.50;;
39554;SDS011;25231;48.746;9.234;2022-07-29T14:42:04;311.77;;;294.70;;
39554;SDS011;25231;48.746;9.234;2022-07-29T14:44:29;291.90;;;275.70;;
39554;SDS011;25231;48.746;9.234;2022-07-29T14:46:57;380.80;;;359.50;;
39554;SDS011;25231;48.746;9.234;2022-07-29T14:49:24;320.45;;;302.48;;
39554;SDS011;25231;48.746;9.234;2022-07-29T14:51:50;253.77;;;240.02;;
39554;SDS011;25231;48.746;9.234;2022-07-29T14:54:16;309.83;;;292.67;;
39554;SDS011;25231;48.746;9.234;2022-07-29T14:56:41;489.75;;;462.02;;
39554;SDS011;25231;48.746;9.234;2022-07-29T14:59:06;494.13;;;465.58;;
39554;SDS011;25231;48.746;9.234;2022-07-29T15:01:32;468.90;;;441.45;;